createdAt,value
2023-02-17T00:00:33.438Z,4.63
2023-02-17T00:02:36.673Z,4.53
2023-02-17T00:04:39.361Z,4.10
2023-02-17T00:06:42.090Z,3.97
2023-02-17T00:08:44.871Z,4.33
2023-02-17T00:10:56.393Z,5.00
2023-02-17T00:12:59.258Z,4.23
2023-02-17T00:15:03.304Z,4.70
2023-02-17T00:17:05.982Z,4.97
2023-02-17T00:19:24.864Z,4.00
2023-02-17T00:21:28.982Z,4.10
2023-02-17T00:23:31.691Z,3.90
2023-02-17T00:25:34.795Z,4.63
2023-02-17T00:27:37.492Z,4.63
2023-02-17T00:29:40.196Z,4.20
2023-02-17T00:31:44.313Z,4.20
2023-02-17T00:33:47.510Z,4.03
2023-02-17T00:35:50.285Z,4.30
2023-02-17T00:37:52.966Z,4.63
2023-02-17T00:39:56.315Z,4.10
2023-02-17T00:41:59.470Z,4.03
2023-02-17T00:44:02.160Z,4.40
2023-02-17T00:46:05.510Z,4.50
2023-02-17T00:48:10.812Z,4.63
2023-02-17T00:50:14.036Z,4.47
2023-02-17T00:52:16.705Z,4.20
2023-02-17T00:54:19.625Z,4.10
2023-02-17T00:56:22.322Z,3.67
2023-02-17T00:58:25.663Z,4.17
2023-02-17T01:00:28.383Z,4.17
2023-02-17T01:02:31.100Z,4.50
2023-02-17T01:04:35.172Z,4.07
2023-02-17T01:06:39.285Z,4.60
2023-02-17T01:08:42.021Z,3.87
2023-02-17T01:10:45.560Z,4.30
2023-02-17T01:12:48.290Z,4.60
2023-02-17T01:14:51.285Z,3.83
2023-02-17T01:16:53.943Z,4.13
2023-02-17T01:18:56.634Z,4.17
2023-02-17T01:21:00.635Z,3.80
2023-02-17T01:23:03.457Z,4.17
2023-02-17T01:25:06.493Z,4.50
2023-02-17T01:27:09.312Z,4.50
2023-02-17T01:29:12.516Z,4.03
2023-02-17T01:31:15.311Z,4.30
2023-02-17T01:33:18.031Z,4.27
2023-02-17T01:35:20.740Z,4.80
2023-02-17T01:37:27.196Z,4.83
2023-02-17T01:39:29.866Z,4.50
2023-02-17T01:41:32.591Z,4.00
2023-02-17T01:43:35.446Z,4.00
2023-02-17T01:45:43.050Z,4.17
2023-02-17T01:47:46.089Z,3.83
2023-02-17T01:49:48.749Z,4.23
2023-02-17T01:51:54.138Z,4.03
2023-02-17T01:53:59.849Z,4.07
2023-02-17T01:56:02.602Z,3.90
2023-02-17T01:58:05.394Z,4.17
2023-02-17T02:00:09.075Z,3.97
2023-02-17T02:02:12.392Z,4.23
2023-02-17T02:04:15.166Z,4.40
2023-02-17T02:06:19.900Z,3.93
2023-02-17T02:08:22.605Z,3.70
2023-02-17T02:10:27.960Z,3.73
2023-02-17T02:12:32.102Z,3.90
2023-02-17T02:14:34.808Z,3.67
2023-02-17T02:16:40.434Z,3.90
2023-02-17T02:18:49.006Z,4.47
2023-02-17T02:21:10.184Z,4.40
2023-02-17T02:23:26.059Z,3.80
2023-02-17T02:25:40.932Z,4.07
2023-02-17T02:27:48.138Z,3.60
2023-02-17T02:30:04.082Z,4.37
2023-02-17T02:32:27.487Z,4.20
2023-02-17T02:34:33.493Z,4.37
2023-02-17T02:36:39.284Z,4.27
2023-02-17T02:38:43.576Z,3.53
2023-02-17T02:40:48.797Z,3.90
2023-02-17T02:42:51.491Z,3.93
2023-02-17T02:44:54.197Z,3.67
2023-02-17T02:46:58.504Z,3.90
2023-02-17T02:49:02.684Z,3.63
2023-02-17T02:51:19.872Z,3.90
2023-02-17T02:53:35.543Z,3.80
2023-02-17T02:56:00.726Z,3.90
2023-02-17T02:58:06.926Z,3.80
2023-02-17T03:00:13.628Z,3.80
2023-02-17T03:02:19.691Z,4.07
2023-02-17T03:04:31.794Z,3.67
2023-02-17T03:06:42.187Z,3.53
2023-02-17T03:08:47.005Z,3.77
2023-02-17T03:10:51.069Z,3.67
2023-02-17T03:12:53.762Z,3.50
2023-02-17T03:14:58.898Z,3.63
2023-02-17T03:17:01.583Z,4.07
2023-02-17T03:19:04.751Z,3.60
2023-02-17T03:21:10.857Z,3.70
2023-02-17T03:23:14.833Z,4.00
2023-02-17T03:25:17.909Z,3.20
2023-02-17T03:27:20.618Z,3.57
2023-02-17T03:29:23.396Z,3.77
2023-02-17T03:31:26.179Z,3.47
2023-02-17T03:33:31.199Z,3.33
2023-02-17T03:35:33.940Z,3.40
2023-02-17T03:37:36.862Z,3.43
2023-02-17T03:39:40.829Z,3.10
2023-02-17T03:41:43.963Z,3.07
2023-02-17T03:43:46.677Z,2.87
2023-02-17T03:45:49.497Z,3.60
2023-02-17T03:47:52.187Z,3.13
2023-02-17T03:49:55.335Z,3.47
2023-02-17T03:51:59.492Z,3.13
2023-02-17T03:54:02.229Z,3.57
2023-02-17T03:56:06.786Z,2.90
2023-02-17T03:58:10.143Z,3.10
2023-02-17T04:00:16.252Z,3.20
2023-02-17T04:02:18.914Z,3.23
2023-02-17T04:04:24.176Z,2.97
2023-02-17T04:06:27.456Z,2.93
2023-02-17T04:08:30.179Z,2.63
2023-02-17T04:10:32.859Z,2.50
2023-02-17T04:12:36.946Z,3.47
2023-02-17T04:14:40.117Z,2.90
2023-02-17T04:16:42.830Z,3.27
2023-02-17T04:18:45.511Z,2.67
2023-02-17T04:20:49.050Z,2.60
2023-02-17T04:22:52.063Z,3.03
2023-02-17T04:24:54.758Z,2.70
2023-02-17T04:26:57.492Z,3.27
2023-02-17T04:29:01.486Z,2.30
2023-02-17T04:31:04.888Z,2.83
2023-02-17T04:33:07.661Z,2.50
2023-02-17T04:35:10.390Z,2.87
2023-02-17T04:37:13.089Z,2.53
2023-02-17T04:39:16.105Z,3.00
2023-02-17T04:41:18.875Z,2.63
2023-02-17T04:43:21.551Z,2.30
2023-02-17T04:45:25.867Z,2.27
2023-02-17T04:47:29.642Z,3.00
2023-02-17T04:49:32.456Z,2.40
2023-02-17T04:51:35.131Z,2.50
2023-02-17T04:53:37.999Z,2.40
2023-02-17T04:55:41.198Z,2.53
2023-02-17T04:57:45.307Z,2.60
2023-02-17T04:59:48.043Z,2.23
2023-02-17T05:01:51.990Z,2.50
2023-02-17T05:03:55.133Z,2.40
2023-02-17T05:05:57.857Z,2.53
2023-02-17T05:08:00.602Z,3.03
2023-02-17T05:10:03.323Z,2.37
2023-02-17T05:12:07.534Z,2.60
2023-02-17T05:14:10.330Z,2.90
2023-02-17T05:16:13.137Z,2.37
2023-02-17T05:18:17.204Z,2.27
2023-02-17T05:20:20.448Z,2.73
2023-02-17T05:22:23.300Z,2.50
2023-02-17T05:24:26.034Z,2.60
2023-02-17T05:26:28.745Z,2.37
2023-02-17T05:28:31.446Z,2.37
2023-02-17T05:30:35.403Z,2.23
2023-02-17T05:32:38.146Z,2.80
2023-02-17T05:34:42.583Z,2.83
2023-02-17T05:36:45.265Z,2.40
2023-02-17T05:38:49.873Z,2.70
2023-02-17T05:40:52.602Z,2.50
2023-02-17T05:42:55.659Z,2.50
2023-02-17T05:44:58.353Z,2.37
2023-02-17T05:47:01.028Z,2.73
2023-02-17T05:49:03.730Z,2.90
2023-02-17T05:51:08.336Z,2.60
2023-02-17T05:53:10.994Z,2.50
2023-02-17T05:55:13.686Z,2.23
2023-02-17T05:57:16.469Z,2.50
2023-02-17T05:59:19.682Z,2.40
2023-02-17T06:01:22.460Z,1.87
2023-02-17T06:03:25.192Z,2.00
2023-02-17T06:05:27.955Z,1.90
2023-02-17T06:07:32.360Z,2.33
2023-02-17T06:09:35.100Z,2.30
2023-02-17T06:11:37.815Z,2.50
2023-02-17T06:13:40.495Z,2.30
2023-02-17T06:15:43.620Z,2.27
2023-02-17T06:17:46.356Z,2.33
2023-02-17T06:19:49.038Z,2.27
2023-02-17T06:21:51.765Z,2.23
2023-02-17T06:23:56.226Z,3.20
2023-02-17T06:25:58.953Z,2.40
2023-02-17T06:28:01.682Z,2.20
2023-02-17T06:30:04.941Z,2.20
2023-02-17T06:32:08.352Z,2.33
2023-02-17T06:34:11.801Z,1.90
2023-02-17T06:36:14.466Z,2.33
2023-02-17T06:38:17.194Z,2.13
2023-02-17T06:40:21.628Z,2.20
2023-02-17T06:42:25.159Z,2.00
2023-02-17T06:44:29.130Z,2.07
2023-02-17T06:46:33.689Z,2.20
2023-02-17T06:48:39.514Z,1.80
2023-02-17T06:50:42.316Z,2.33
2023-02-17T06:52:45.005Z,2.00
2023-02-17T06:54:48.248Z,2.10
2023-02-17T06:56:52.531Z,1.90
2023-02-17T06:58:55.235Z,1.63
2023-02-17T07:00:57.923Z,2.00
2023-02-17T07:03:00.777Z,2.10
2023-02-17T07:05:04.020Z,2.00
2023-02-17T07:07:06.735Z,2.10
2023-02-17T07:09:11.469Z,1.90
2023-02-17T07:11:14.809Z,2.07
2023-02-17T07:13:19.249Z,1.80
2023-02-17T07:15:21.882Z,2.03
2023-02-17T07:17:24.556Z,2.30
2023-02-17T07:19:27.269Z,1.90
2023-02-17T07:21:31.360Z,2.10
2023-02-17T07:23:33.996Z,1.80
2023-02-17T07:25:36.697Z,1.43
2023-02-17T07:27:39.426Z,1.70
2023-02-17T07:29:43.790Z,2.03
2023-02-17T07:31:46.493Z,1.97
2023-02-17T07:33:50.157Z,1.67
2023-02-17T07:35:54.067Z,1.70
2023-02-17T07:37:58.144Z,1.60
2023-02-17T07:40:00.819Z,1.83
2023-02-17T07:42:05.124Z,1.70
2023-02-17T07:44:07.890Z,1.60
2023-02-17T07:46:12.326Z,1.97
2023-02-17T07:48:15.009Z,2.00
2023-02-17T07:50:17.933Z,1.77
2023-02-17T07:52:20.642Z,1.70
2023-02-17T07:54:23.638Z,1.77
2023-02-17T07:56:26.652Z,1.67
2023-02-17T07:58:29.434Z,1.50
2023-02-17T08:00:32.131Z,1.70
2023-02-17T08:02:36.485Z,1.50
2023-02-17T08:04:39.222Z,2.00
2023-02-17T08:06:41.899Z,1.90
2023-02-17T08:08:55.871Z,1.63
2023-02-17T08:11:15.744Z,1.73
2023-02-17T08:13:21.946Z,1.80
2023-02-17T08:15:24.626Z,1.60
2023-02-17T08:17:27.729Z,1.70
2023-02-17T08:19:46.720Z,1.63
2023-02-17T08:21:50.781Z,2.17
2023-02-17T08:23:53.609Z,1.80
2023-02-17T08:25:58.604Z,1.40
2023-02-17T08:28:01.552Z,1.53
2023-02-17T08:30:04.610Z,1.47
2023-02-17T08:32:07.893Z,1.70
2023-02-17T08:34:11.523Z,1.60
2023-02-17T08:36:16.163Z,1.90
2023-02-17T08:38:19.284Z,1.50
2023-02-17T08:40:22.016Z,1.47
2023-02-17T08:42:25.712Z,1.90
2023-02-17T08:44:28.556Z,1.57
2023-02-17T08:46:31.670Z,1.63
2023-02-17T08:48:36.655Z,1.50
2023-02-17T08:50:39.448Z,1.83
2023-02-17T08:52:43.602Z,1.80
2023-02-17T08:54:46.918Z,1.70
2023-02-17T08:56:49.648Z,1.53
2023-02-17T08:58:52.465Z,1.30
2023-02-17T09:00:55.253Z,1.63
2023-02-17T09:02:58.509Z,1.60
2023-02-17T09:05:01.406Z,1.70
2023-02-17T09:07:04.148Z,1.70
2023-02-17T09:09:09.018Z,1.70
2023-02-17T09:11:12.721Z,1.90
2023-02-17T09:13:15.980Z,1.43
2023-02-17T09:15:18.970Z,1.50
2023-02-17T09:17:22.022Z,1.80
2023-02-17T09:19:25.483Z,1.77
2023-02-17T09:21:28.994Z,1.70
2023-02-17T09:23:31.726Z,1.77
2023-02-17T09:25:35.818Z,1.50
2023-02-17T09:27:39.034Z,1.50
2023-02-17T09:29:41.770Z,1.57
2023-02-17T09:31:46.222Z,1.60
2023-02-17T09:33:49.571Z,1.50
2023-02-17T09:35:54.791Z,1.60
2023-02-17T09:37:57.696Z,1.40
2023-02-17T09:40:00.514Z,1.50
2023-02-17T09:42:04.814Z,1.60
2023-02-17T09:44:08.993Z,1.60
2023-02-17T09:46:15.870Z,1.37
2023-02-17T09:48:20.269Z,1.40
2023-02-17T09:50:24.544Z,2.20
2023-02-17T09:52:29.440Z,1.40
2023-02-17T09:54:35.432Z,1.23
2023-02-17T09:56:39.581Z,1.40
2023-02-17T09:58:44.790Z,1.27
2023-02-17T10:00:48.409Z,1.97
2023-02-17T10:02:53.520Z,1.60
2023-02-17T10:04:56.340Z,1.63
2023-02-17T10:07:02.354Z,1.27
2023-02-17T10:09:06.915Z,1.83
2023-02-17T10:11:11.643Z,1.30
2023-02-17T10:13:14.698Z,1.33
2023-02-17T10:15:20.807Z,1.70
2023-02-17T10:17:25.982Z,1.90
2023-02-17T10:19:30.528Z,1.77
2023-02-17T10:21:36.834Z,1.60
2023-02-17T10:23:40.691Z,1.70
2023-02-17T10:25:52.522Z,1.67
2023-02-17T10:27:57.145Z,1.90
2023-02-17T10:30:07.736Z,1.60
2023-02-17T10:32:23.487Z,1.90
2023-02-17T10:34:31.174Z,1.70
2023-02-17T10:36:40.422Z,2.00
2023-02-17T10:38:48.899Z,1.70
2023-02-17T10:40:51.663Z,2.20
2023-02-17T10:42:55.978Z,1.80
2023-02-17T10:45:01.500Z,1.77
2023-02-17T10:47:04.317Z,1.70
2023-02-17T10:49:13.087Z,1.70
2023-02-17T10:51:16.610Z,1.50
2023-02-17T10:53:21.349Z,1.87
2023-02-17T10:55:27.533Z,1.73
2023-02-17T10:57:33.752Z,1.70
2023-02-17T10:59:40.287Z,1.50
2023-02-17T11:01:42.997Z,1.50
2023-02-17T11:03:45.936Z,1.63
2023-02-17T11:05:56.112Z,1.67
2023-02-17T11:08:00.820Z,1.73
2023-02-17T11:10:04.998Z,1.73
2023-02-17T11:12:12.650Z,1.93
2023-02-17T11:14:20.529Z,1.90
2023-02-17T11:16:23.673Z,1.37
2023-02-17T11:18:28.655Z,1.60
2023-02-17T11:20:34.461Z,1.30
2023-02-17T11:22:41.508Z,1.77
2023-02-17T11:24:44.321Z,1.57
2023-02-17T11:26:56.305Z,1.70
2023-02-17T11:29:09.391Z,1.60
2023-02-17T11:31:23.583Z,1.60
2023-02-17T11:33:31.314Z,1.43
2023-02-17T11:35:47.133Z,1.60
2023-02-17T11:37:51.192Z,1.27
2023-02-17T11:39:54.614Z,1.30
2023-02-17T11:41:57.700Z,1.37
2023-02-17T11:44:01.021Z,1.30
2023-02-17T11:46:13.170Z,1.37
2023-02-17T11:48:30.001Z,1.20
2023-02-17T11:50:41.346Z,1.43
2023-02-17T11:52:53.325Z,1.40
2023-02-17T11:55:04.299Z,1.20
2023-02-17T11:57:18.420Z,1.40
2023-02-17T11:59:30.353Z,1.40
2023-02-17T12:01:44.638Z,1.20
2023-02-17T12:03:58.381Z,1.40
2023-02-17T12:06:06.044Z,1.13
2023-02-17T12:08:17.972Z,1.30
2023-02-17T12:10:24.500Z,1.60
2023-02-17T12:12:31.652Z,1.17
2023-02-17T12:14:43.155Z,1.40
2023-02-17T12:16:49.773Z,1.30
2023-02-17T12:19:01.238Z,1.30
2023-02-17T12:21:08.002Z,1.10
2023-02-17T12:23:25.368Z,1.37
2023-02-17T12:25:33.077Z,1.20
2023-02-17T12:27:44.494Z,1.20
2023-02-17T12:30:00.368Z,0.90
2023-02-17T12:32:11.340Z,0.80
2023-02-17T12:34:17.888Z,1.20
2023-02-17T12:36:20.756Z,1.27
2023-02-17T12:38:28.119Z,2.13
2023-02-17T12:40:35.096Z,1.20
2023-02-17T12:42:39.574Z,1.43
2023-02-17T12:44:43.763Z,1.30
2023-02-17T12:46:48.517Z,1.03
2023-02-17T12:48:54.209Z,1.20
2023-02-17T12:50:59.417Z,1.33
2023-02-17T12:53:03.087Z,1.30
2023-02-17T12:55:36.187Z,1.50
2023-02-17T12:57:42.550Z,1.20
2023-02-17T12:59:45.959Z,1.50
2023-02-17T13:01:52.865Z,1.23
2023-02-17T13:03:56.182Z,1.00
2023-02-17T13:06:01.449Z,1.30
2023-02-17T13:08:05.755Z,1.03
2023-02-17T13:10:09.694Z,1.30
2023-02-17T13:12:30.849Z,1.20
2023-02-17T13:14:44.889Z,1.10
2023-02-17T13:16:47.914Z,1.10
2023-02-17T13:18:51.734Z,1.10
2023-02-17T13:20:59.760Z,1.20
2023-02-17T13:23:05.659Z,1.17
2023-02-17T13:25:08.535Z,2.07
2023-02-17T13:27:12.378Z,1.23
2023-02-17T13:29:23.191Z,1.00
2023-02-17T13:31:26.969Z,1.10
2023-02-17T13:33:33.885Z,1.10
2023-02-17T13:35:39.893Z,1.10
2023-02-17T13:37:43.760Z,1.00
2023-02-17T13:39:46.455Z,0.90
2023-02-17T13:41:49.445Z,1.17
2023-02-17T13:43:52.516Z,0.80
2023-02-17T13:45:59.551Z,1.23
2023-02-17T13:48:13.360Z,1.00
2023-02-17T13:50:29.391Z,1.20
2023-02-17T13:52:32.684Z,1.13
2023-02-17T13:54:35.811Z,1.03
2023-02-17T13:56:38.607Z,1.20
2023-02-17T13:58:43.540Z,0.90
2023-02-17T14:00:46.258Z,1.20
2023-02-17T14:02:57.453Z,1.40
2023-02-17T14:05:00.619Z,1.23
2023-02-17T14:07:10.963Z,1.17
2023-02-17T14:09:14.882Z,0.97
2023-02-17T14:11:19.742Z,1.07
2023-02-17T14:13:25.622Z,0.80
2023-02-17T14:15:29.553Z,1.03
2023-02-17T14:17:33.224Z,1.10
2023-02-17T14:19:45.813Z,1.00
2023-02-17T14:21:59.578Z,1.30
2023-02-17T14:24:02.317Z,1.13
2023-02-17T14:26:13.515Z,1.27
2023-02-17T14:28:23.309Z,1.23
2023-02-17T14:30:30.618Z,1.20
2023-02-17T14:32:36.702Z,0.90
2023-02-17T14:34:39.427Z,0.87
2023-02-17T14:36:43.529Z,1.20
2023-02-17T14:38:46.281Z,1.23
2023-02-17T14:40:49.240Z,1.00
2023-02-17T14:42:52.360Z,0.87
2023-02-17T14:44:55.150Z,1.30
2023-02-17T14:46:57.966Z,0.97
2023-02-17T14:49:00.851Z,1.07
2023-02-17T14:51:03.852Z,1.30
2023-02-17T14:53:12.891Z,1.10
2023-02-17T14:55:19.555Z,0.90
2023-02-17T14:57:24.968Z,1.57
2023-02-17T14:59:28.223Z,1.60
2023-02-17T15:01:32.152Z,1.23
2023-02-17T15:03:34.855Z,1.60
2023-02-17T15:05:37.623Z,1.60
2023-02-17T15:07:40.811Z,1.77
2023-02-17T15:09:44.924Z,2.00
2023-02-17T15:11:49.076Z,1.50
2023-02-17T15:13:52.091Z,1.67
2023-02-17T15:15:55.244Z,2.13
2023-02-17T15:17:58.020Z,2.20
2023-02-17T15:20:00.804Z,2.07
2023-02-17T15:22:03.893Z,2.00
2023-02-17T15:24:16.158Z,2.00
2023-02-17T15:26:20.383Z,2.37
2023-02-17T15:28:23.634Z,1.87
2023-02-17T15:30:29.225Z,3.00
2023-02-17T15:32:31.939Z,2.20
2023-02-17T15:34:34.667Z,1.87
2023-02-17T15:36:37.906Z,1.90
2023-02-17T15:38:40.618Z,1.93
2023-02-17T15:40:43.382Z,1.97
2023-02-17T15:42:47.993Z,2.07
2023-02-17T15:44:51.168Z,1.70
2023-02-17T15:46:54.910Z,2.00
2023-02-17T15:48:58.104Z,1.80
2023-02-17T15:51:00.823Z,1.97
2023-02-17T15:53:04.012Z,1.87
2023-02-17T15:55:07.532Z,2.00
2023-02-17T15:57:12.219Z,1.77
2023-02-17T15:59:19.806Z,1.90
2023-02-17T16:01:25.861Z,2.33
2023-02-17T16:03:28.728Z,2.10
2023-02-17T16:05:33.540Z,2.20
2023-02-17T16:07:38.199Z,2.07
2023-02-17T16:09:42.657Z,1.80
2023-02-17T16:11:48.228Z,2.57
2023-02-17T16:13:52.240Z,1.90
2023-02-17T16:15:56.609Z,2.07
2023-02-17T16:17:59.942Z,2.07
2023-02-17T16:20:02.714Z,2.03
2023-02-17T16:22:05.827Z,2.23
2023-02-17T16:24:09.600Z,1.90
2023-02-17T16:26:15.998Z,2.27
2023-02-17T16:28:20.639Z,2.30
2023-02-17T16:30:25.113Z,2.70
2023-02-17T16:32:29.313Z,2.50
2023-02-17T16:34:33.467Z,2.10
2023-02-17T16:36:36.257Z,2.23
2023-02-17T16:38:39.432Z,2.50
2023-02-17T16:40:47.289Z,2.40
2023-02-17T16:42:49.983Z,2.60
2023-02-17T16:44:52.663Z,1.93
2023-02-17T16:46:56.389Z,2.30
2023-02-17T16:49:01.279Z,2.33
2023-02-17T16:51:03.976Z,2.23
2023-02-17T16:53:08.993Z,2.13
2023-02-17T16:55:16.386Z,2.13
2023-02-17T16:57:19.332Z,2.13
2023-02-17T16:59:23.864Z,2.17
2023-02-17T17:01:26.695Z,2.40
2023-02-17T17:03:30.354Z,2.13
2023-02-17T17:05:35.832Z,1.60
2023-02-17T17:07:38.784Z,1.90
2023-02-17T17:09:43.045Z,1.93
2023-02-17T17:11:48.438Z,1.73
2023-02-17T17:13:51.535Z,1.77
2023-02-17T17:15:56.455Z,1.90
2023-02-17T17:18:00.436Z,2.00
2023-02-17T17:20:04.276Z,2.30
2023-02-17T17:22:08.482Z,1.90
2023-02-17T17:24:11.183Z,1.77
2023-02-17T17:26:20.759Z,1.80
2023-02-17T17:28:24.272Z,1.73
2023-02-17T17:30:29.800Z,2.50
2023-02-17T17:32:33.754Z,2.20
2023-02-17T17:34:36.903Z,2.33
2023-02-17T17:36:40.944Z,2.43
2023-02-17T17:38:55.080Z,2.30
2023-02-17T17:40:57.908Z,1.93
2023-02-17T17:43:01.377Z,2.10
2023-02-17T17:45:04.357Z,1.97
2023-02-17T17:47:07.367Z,1.80
2023-02-17T17:49:10.631Z,2.03
2023-02-17T17:51:14.391Z,1.77
2023-02-17T17:53:17.871Z,1.80
2023-02-17T17:55:22.372Z,1.90
2023-02-17T17:57:25.228Z,1.90
2023-02-17T17:59:28.444Z,2.07
2023-02-17T18:01:32.251Z,1.80
2023-02-17T18:03:35.071Z,2.07
2023-02-17T18:05:37.748Z,1.77
2023-02-17T18:07:41.247Z,1.70
2023-02-17T18:09:52.751Z,1.80
2023-02-17T18:11:59.822Z,2.37
2023-02-17T18:14:05.420Z,1.50
2023-02-17T18:16:09.269Z,1.90
2023-02-17T18:18:12.620Z,2.10
2023-02-17T18:20:18.211Z,1.90
2023-02-17T18:22:22.442Z,2.00
2023-02-17T18:24:25.294Z,1.77
2023-02-17T18:26:29.290Z,2.10
2023-02-17T18:28:33.857Z,2.40
2023-02-17T18:30:37.067Z,1.70
2023-02-17T18:32:39.807Z,1.83
2023-02-17T18:34:42.526Z,1.80
2023-02-17T18:36:45.247Z,2.00
2023-02-17T18:38:48.586Z,1.73
2023-02-17T18:40:52.978Z,2.03
2023-02-17T18:42:55.856Z,1.93
2023-02-17T18:44:59.911Z,1.97
2023-02-17T18:47:02.997Z,1.80
2023-02-17T18:49:05.825Z,1.57
2023-02-17T18:51:08.779Z,1.80
2023-02-17T18:53:11.795Z,1.63
2023-02-17T18:55:14.561Z,2.03
2023-02-17T18:57:17.419Z,2.13
2023-02-17T18:59:20.213Z,1.60
2023-02-17T19:01:25.721Z,1.53
2023-02-17T19:03:29.552Z,1.50
2023-02-17T19:05:32.330Z,1.80
2023-02-17T19:07:35.129Z,1.77
2023-02-17T19:09:42.383Z,1.80
2023-02-17T19:11:45.100Z,1.67
2023-02-17T19:13:48.188Z,1.60
2023-02-17T19:15:51.471Z,1.50
2023-02-17T19:17:57.827Z,1.70
2023-02-17T19:20:03.342Z,1.50
2023-02-17T19:22:08.183Z,1.30
2023-02-17T19:24:11.225Z,1.30
2023-02-17T19:26:15.796Z,1.50
2023-02-17T19:28:18.527Z,1.27
2023-02-17T19:30:21.560Z,1.33
2023-02-17T19:32:24.763Z,1.70
2023-02-17T19:34:29.519Z,1.43
2023-02-17T19:36:32.261Z,1.60
2023-02-17T19:38:35.014Z,1.30
2023-02-17T19:40:38.181Z,1.43
2023-02-17T19:42:41.264Z,2.07
2023-02-17T19:44:44.055Z,1.70
2023-02-17T19:46:46.855Z,1.73
2023-02-17T19:48:50.416Z,1.73
2023-02-17T19:50:59.130Z,1.80
2023-02-17T19:53:01.803Z,2.63
2023-02-17T19:55:05.036Z,2.70
2023-02-17T19:57:08.148Z,2.57
2023-02-17T19:59:10.980Z,3.10
2023-02-17T20:01:15.303Z,2.60
2023-02-17T20:03:18.157Z,2.70
2023-02-17T20:05:21.457Z,2.80
2023-02-17T20:07:25.536Z,2.43
2023-02-17T20:09:28.275Z,2.70
2023-02-17T20:11:32.117Z,2.10
2023-02-17T20:13:45.268Z,2.70
2023-02-17T20:15:49.108Z,2.73
2023-02-17T20:17:52.037Z,2.40
2023-02-17T20:19:54.893Z,2.60
2023-02-17T20:21:59.603Z,3.43
2023-02-17T20:24:03.652Z,2.93
2023-02-17T20:26:06.983Z,2.87
2023-02-17T20:28:10.076Z,3.10
2023-02-17T20:30:13.814Z,2.90
2023-02-17T20:32:17.073Z,3.10
2023-02-17T20:34:27.874Z,3.00
2023-02-17T20:36:30.849Z,3.17
2023-02-17T20:38:37.426Z,2.70
2023-02-17T20:40:43.907Z,2.50
2023-02-17T20:42:46.579Z,2.40
2023-02-17T20:44:51.314Z,2.50
2023-02-17T20:46:54.683Z,2.53
2023-02-17T20:48:57.508Z,2.47
2023-02-17T20:51:00.560Z,2.00
2023-02-17T20:53:03.334Z,2.97
2023-02-17T20:55:06.781Z,2.70
2023-02-17T20:57:13.784Z,2.00
2023-02-17T20:59:16.543Z,2.17
2023-02-17T21:01:19.936Z,2.63
2023-02-17T21:03:23.170Z,2.30
2023-02-17T21:05:28.014Z,2.40
2023-02-17T21:07:30.905Z,2.30
2023-02-17T21:09:33.570Z,2.43
2023-02-17T21:11:36.701Z,1.90
2023-02-17T21:13:40.660Z,2.53
2023-02-17T21:15:43.455Z,1.80
2023-02-17T21:17:46.373Z,1.83
2023-02-17T21:19:49.426Z,2.10
2023-02-17T21:21:54.650Z,2.43
2023-02-17T21:23:57.630Z,2.10
2023-02-17T21:26:00.494Z,2.40
2023-02-17T21:28:03.719Z,2.30
2023-02-17T21:30:09.194Z,1.90
2023-02-17T21:32:20.492Z,2.00
2023-02-17T21:34:23.320Z,2.10
2023-02-17T21:36:28.987Z,2.00
2023-02-17T21:38:32.014Z,1.77
2023-02-17T21:40:34.750Z,2.40
2023-02-17T21:42:49.151Z,2.00
2023-02-17T21:44:55.136Z,1.80
2023-02-17T21:46:59.264Z,2.10
2023-02-17T21:49:02.233Z,2.47
2023-02-17T21:51:07.154Z,1.97
2023-02-17T21:53:09.916Z,1.90
2023-02-17T21:55:12.686Z,1.70
2023-02-17T21:57:15.687Z,1.87
2023-02-17T21:59:18.846Z,1.70
2023-02-17T22:01:21.630Z,1.57
2023-02-17T22:03:25.622Z,1.50
2023-02-17T22:05:32.684Z,1.73
2023-02-17T22:07:38.519Z,1.93
2023-02-17T22:09:41.255Z,2.50
2023-02-17T22:11:44.287Z,1.40
2023-02-17T22:13:46.987Z,1.63
2023-02-17T22:15:57.744Z,1.80
2023-02-17T22:18:00.552Z,1.63
2023-02-17T22:20:05.329Z,1.73
2023-02-17T22:22:08.525Z,2.10
2023-02-17T22:24:11.240Z,1.60
2023-02-17T22:26:14.843Z,1.50
2023-02-17T22:28:17.819Z,1.97
2023-02-17T22:30:21.105Z,1.53
2023-02-17T22:32:23.905Z,2.00
2023-02-17T22:34:27.637Z,1.63
2023-02-17T22:36:32.230Z,1.93
2023-02-17T22:38:35.271Z,1.70
2023-02-17T22:40:40.701Z,2.07
2023-02-17T22:42:43.360Z,1.47
2023-02-17T22:44:46.061Z,1.90
2023-02-17T22:46:50.620Z,2.10
2023-02-17T22:48:53.772Z,1.63
2023-02-17T22:50:56.528Z,1.70
2023-02-17T22:53:00.514Z,1.87
2023-02-17T22:55:03.714Z,1.80
2023-02-17T22:57:06.474Z,1.70
2023-02-17T22:59:09.194Z,1.90
2023-02-17T23:01:12.782Z,1.60
2023-02-17T23:03:16.268Z,1.70
2023-02-17T23:05:20.168Z,1.80
2023-02-17T23:07:24.206Z,1.47
2023-02-17T23:09:28.187Z,1.47
2023-02-17T23:11:43.335Z,1.50
2023-02-17T23:13:46.136Z,1.20
2023-02-17T23:15:48.821Z,1.83
2023-02-17T23:17:59.252Z,1.23
2023-02-17T23:20:01.970Z,2.00
2023-02-17T23:22:05.756Z,1.90
2023-02-17T23:24:08.928Z,1.77
2023-02-17T23:26:12.996Z,1.30
2023-02-17T23:28:15.733Z,1.77
2023-02-17T23:30:20.169Z,1.37
2023-02-17T23:32:23.180Z,1.23
2023-02-17T23:34:25.981Z,1.30
2023-02-17T23:36:28.716Z,1.30
2023-02-17T23:38:31.966Z,1.50
2023-02-17T23:40:37.188Z,1.23
2023-02-17T23:42:41.193Z,1.10
2023-02-17T23:44:44.266Z,1.57
2023-02-17T23:46:47.026Z,1.70
2023-02-17T23:48:49.853Z,1.13
2023-02-17T23:50:56.821Z,1.73
2023-02-17T23:52:59.755Z,1.40
2023-02-17T23:55:02.642Z,1.30
2023-02-17T23:57:05.488Z,1.30
2023-02-17T23:59:09.939Z,2.70
